West Pierrepont, New York
Current Conditions -  °F | °C
As of 3:53 PM on Thursday 27 Nov 2014 (Local Time) from KMSS Reporting Station
Overcast Overcast  
Wind Chill: 23°   Ceiling: 3100
Heat Index: 29°   Visibility: 10mi
Dew Point: 18°   Wind: 6mph
Humidity: 64%   Direction: 280°W
Pressure: 30.06"   Gusts: NA
Location:  44.5792°N, 75.1592°W
Report Text: KMSS 272053Z AUTO 28005KT 10SM OVC031 M02/M08 A3006 RMK AO2 SLP184 T10171078 52004
Loading
Personal Weather Stations






























Interactive Weather Map New forecast layout! Learn more

10-Day Weather Forecast

Advertisements
Track Severe Weather on mobile